sensor_id;sensor_type;location;lat;lon;timestamp;P1;durP1;ratioP1;P2;durP2;ratioP2
20014;SDS011;61787;42.022;23.078;2023-03-03T00:00:50;9.73;;;6.80;;
20014;SDS011;61787;42.022;23.078;2023-03-03T00:01:52;9.23;;;6.50;;
20014;SDS011;61787;42.022;23.078;2023-03-03T00:02:55;8.53;;;6.40;;
20014;SDS011;61787;42.022;23.078;2023-03-03T00:04:01;9.03;;;6.87;;
20014;SDS011;61787;42.022;23.078;2023-03-03T00:05:03;10.10;;;7.20;;
20014;SDS011;61787;42.022;23.078;2023-03-03T00:06:05;9.13;;;6.93;;
20014;SDS011;61787;42.022;23.078;2023-03-03T00:07:10;9.23;;;6.73;;
20014;SDS011;61787;42.022;23.078;2023-03-03T00:08:12;9.07;;;6.27;;
20014;SDS011;61787;42.022;23.078;2023-03-03T00:09:14;9.97;;;6.43;;
20014;SDS011;61787;42.022;23.078;2023-03-03T00:10:15;10.23;;;6.67;;
20014;SDS011;61787;42.022;23.078;2023-03-03T00:11:17;8.90;;;6.57;;
20014;SDS011;61787;42.022;23.078;2023-03-03T00:12:23;9.90;;;6.97;;
20014;SDS011;61787;42.022;23.078;2023-03-03T00:13:29;8.53;;;6.30;;
20014;SDS011;61787;42.022;23.078;2023-03-03T00:14:32;9.60;;;6.67;;
20014;SDS011;61787;42.022;23.078;2023-03-03T00:15:34;9.20;;;6.13;;
20014;SDS011;61787;42.022;23.078;2023-03-03T00:16:37;10.00;;;6.50;;
20014;SDS011;61787;42.022;23.078;2023-03-03T00:17:39;9.00;;;6.23;;
20014;SDS011;61787;42.022;23.078;2023-03-03T00:18:44;9.60;;;6.80;;
20014;SDS011;61787;42.022;23.078;2023-03-03T00:19:48;10.57;;;6.33;;
20014;SDS011;61787;42.022;23.078;2023-03-03T00:20:56;8.93;;;6.17;;
20014;SDS011;61787;42.022;23.078;2023-03-03T00:22:01;8.80;;;6.23;;
20014;SDS011;61787;42.022;23.078;2023-03-03T00:24:29;8.83;;;6.23;;
20014;SDS011;61787;42.022;23.078;2023-03-03T00:25:37;10.63;;;6.83;;
20014;SDS011;61787;42.022;23.078;2023-03-03T00:26:45;10.10;;;6.77;;
20014;SDS011;61787;42.022;23.078;2023-03-03T00:27:51;9.80;;;6.30;;
20014;SDS011;61787;42.022;23.078;2023-03-03T00:28:53;8.67;;;6.30;;
20014;SDS011;61787;42.022;23.078;2023-03-03T00:29:57;8.63;;;6.07;;
20014;SDS011;61787;42.022;23.078;2023-03-03T00:31:01;10.83;;;6.47;;
20014;SDS011;61787;42.022;23.078;2023-03-03T00:33:22;9.87;;;6.50;;
20014;SDS011;61787;42.022;23.078;2023-03-03T00:34:34;7.30;;;5.77;;
20014;SDS011;61787;42.022;23.078;2023-03-03T00:35:36;9.73;;;6.70;;
20014;SDS011;61787;42.022;23.078;2023-03-03T00:36:39;9.97;;;5.87;;
20014;SDS011;61787;42.022;23.078;2023-03-03T00:37:42;7.57;;;6.10;;
20014;SDS011;61787;42.022;23.078;2023-03-03T00:38:44;7.23;;;5.47;;
20014;SDS011;61787;42.022;23.078;2023-03-03T00:39:46;8.53;;;6.13;;
20014;SDS011;61787;42.022;23.078;2023-03-03T00:40:48;10.30;;;6.57;;
20014;SDS011;61787;42.022;23.078;2023-03-03T00:41:50;9.73;;;6.10;;
20014;SDS011;61787;42.022;23.078;2023-03-03T00:42:53;8.43;;;5.87;;
20014;SDS011;61787;42.022;23.078;2023-03-03T00:43:56;8.70;;;6.00;;
20014;SDS011;61787;42.022;23.078;2023-03-03T00:44:58;7.17;;;5.93;;
20014;SDS011;61787;42.022;23.078;2023-03-03T00:46:01;8.23;;;5.80;;
20014;SDS011;61787;42.022;23.078;2023-03-03T00:47:13;7.00;;;5.47;;
20014;SDS011;61787;42.022;23.078;2023-03-03T00:49:36;6.87;;;5.00;;
20014;SDS011;61787;42.022;23.078;2023-03-03T00:50:38;7.17;;;4.87;;
20014;SDS011;61787;42.022;23.078;2023-03-03T00:51:42;8.40;;;5.07;;
20014;SDS011;61787;42.022;23.078;2023-03-03T00:52:45;5.83;;;4.53;;
20014;SDS011;61787;42.022;23.078;2023-03-03T00:53:59;7.43;;;5.37;;
20014;SDS011;61787;42.022;23.078;2023-03-03T00:55:01;7.33;;;4.90;;
20014;SDS011;61787;42.022;23.078;2023-03-03T00:56:04;6.03;;;5.10;;
20014;SDS011;61787;42.022;23.078;2023-03-03T00:57:06;6.07;;;4.37;;
20014;SDS011;61787;42.022;23.078;2023-03-03T00:58:07;6.83;;;4.80;;
20014;SDS011;61787;42.022;23.078;2023-03-03T00:59:10;7.23;;;5.00;;
20014;SDS011;61787;42.022;23.078;2023-03-03T01:00:11;6.80;;;4.90;;
20014;SDS011;61787;42.022;23.078;2023-03-03T01:01:14;6.03;;;4.40;;
20014;SDS011;61787;42.022;23.078;2023-03-03T01:02:16;7.53;;;4.77;;
20014;SDS011;61787;42.022;23.078;2023-03-03T01:03:20;6.60;;;4.97;;
20014;SDS011;61787;42.022;23.078;2023-03-03T01:04:22;5.30;;;4.37;;
20014;SDS011;61787;42.022;23.078;2023-03-03T01:05:24;6.57;;;4.80;;
20014;SDS011;61787;42.022;23.078;2023-03-03T01:06:25;7.57;;;4.80;;
20014;SDS011;61787;42.022;23.078;2023-03-03T01:07:28;8.10;;;4.83;;
20014;SDS011;61787;42.022;23.078;2023-03-03T01:08:29;6.07;;;4.60;;
20014;SDS011;61787;42.022;23.078;2023-03-03T01:09:31;5.67;;;4.40;;
20014;SDS011;61787;42.022;23.078;2023-03-03T01:10:33;5.37;;;4.17;;
20014;SDS011;61787;42.022;23.078;2023-03-03T01:11:39;7.53;;;4.83;;
20014;SDS011;61787;42.022;23.078;2023-03-03T01:12:41;6.27;;;4.43;;
20014;SDS011;61787;42.022;23.078;2023-03-03T01:13:43;6.00;;;4.63;;
20014;SDS011;61787;42.022;23.078;2023-03-03T01:14:47;6.70;;;4.70;;
20014;SDS011;61787;42.022;23.078;2023-03-03T01:15:53;7.53;;;4.80;;
20014;SDS011;61787;42.022;23.078;2023-03-03T01:16:54;6.87;;;4.93;;
20014;SDS011;61787;42.022;23.078;2023-03-03T01:17:56;5.93;;;4.40;;
20014;SDS011;61787;42.022;23.078;2023-03-03T01:18:58;7.03;;;4.23;;
20014;SDS011;61787;42.022;23.078;2023-03-03T01:20:00;6.77;;;4.70;;
20014;SDS011;61787;42.022;23.078;2023-03-03T01:21:01;6.03;;;4.80;;
20014;SDS011;61787;42.022;23.078;2023-03-03T01:22:03;6.10;;;4.57;;
20014;SDS011;61787;42.022;23.078;2023-03-03T01:23:05;7.63;;;4.67;;
20014;SDS011;61787;42.022;23.078;2023-03-03T01:24:07;6.17;;;4.37;;
20014;SDS011;61787;42.022;23.078;2023-03-03T01:25:08;8.57;;;5.70;;
20014;SDS011;61787;42.022;23.078;2023-03-03T01:26:11;6.10;;;4.87;;
20014;SDS011;61787;42.022;23.078;2023-03-03T01:27:12;8.60;;;5.13;;
20014;SDS011;61787;42.022;23.078;2023-03-03T01:28:14;6.43;;;4.83;;
20014;SDS011;61787;42.022;23.078;2023-03-03T01:29:15;6.40;;;5.10;;
20014;SDS011;61787;42.022;23.078;2023-03-03T01:30:17;6.70;;;5.37;;
20014;SDS011;61787;42.022;23.078;2023-03-03T01:31:19;7.17;;;5.30;;
20014;SDS011;61787;42.022;23.078;2023-03-03T01:32:21;7.27;;;4.90;;
20014;SDS011;61787;42.022;23.078;2023-03-03T01:33:23;5.63;;;4.60;;
20014;SDS011;61787;42.022;23.078;2023-03-03T01:34:25;8.57;;;5.80;;
20014;SDS011;61787;42.022;23.078;2023-03-03T01:35:26;7.20;;;5.27;;
20014;SDS011;61787;42.022;23.078;2023-03-03T01:36:30;7.60;;;5.10;;
20014;SDS011;61787;42.022;23.078;2023-03-03T01:37:33;7.47;;;5.00;;
20014;SDS011;61787;42.022;23.078;2023-03-03T01:38:36;6.73;;;4.67;;
20014;SDS011;61787;42.022;23.078;2023-03-03T01:39:39;7.93;;;5.07;;
20014;SDS011;61787;42.022;23.078;2023-03-03T01:40:41;6.87;;;4.77;;
20014;SDS011;61787;42.022;23.078;2023-03-03T01:41:42;8.23;;;4.90;;
20014;SDS011;61787;42.022;23.078;2023-03-03T01:42:44;6.47;;;4.60;;
20014;SDS011;61787;42.022;23.078;2023-03-03T01:43:47;6.97;;;5.10;;
20014;SDS011;61787;42.022;23.078;2023-03-03T01:45:06;8.60;;;5.20;;
20014;SDS011;61787;42.022;23.078;2023-03-03T01:46:24;7.77;;;5.00;;
20014;SDS011;61787;42.022;23.078;2023-03-03T01:47:28;6.53;;;4.50;;
20014;SDS011;61787;42.022;23.078;2023-03-03T01:48:35;6.57;;;5.00;;
20014;SDS011;61787;42.022;23.078;2023-03-03T01:50:49;8.10;;;5.47;;
20014;SDS011;61787;42.022;23.078;2023-03-03T01:51:57;7.77;;;5.60;;
20014;SDS011;61787;42.022;23.078;2023-03-03T01:53:03;7.17;;;5.10;;
20014;SDS011;61787;42.022;23.078;2023-03-03T01:54:09;7.60;;;5.73;;
20014;SDS011;61787;42.022;23.078;2023-03-03T01:55:17;6.23;;;5.03;;
20014;SDS011;61787;42.022;23.078;2023-03-03T01:56:23;6.43;;;5.27;;
20014;SDS011;61787;42.022;23.078;2023-03-03T01:57:27;7.00;;;4.77;;
20014;SDS011;61787;42.022;23.078;2023-03-03T01:58:49;6.03;;;4.93;;
20014;SDS011;61787;42.022;23.078;2023-03-03T01:59:59;8.10;;;5.93;;
20014;SDS011;61787;42.022;23.078;2023-03-03T02:01:04;6.77;;;5.13;;
20014;SDS011;61787;42.022;23.078;2023-03-03T02:02:09;8.27;;;5.73;;
20014;SDS011;61787;42.022;23.078;2023-03-03T02:03:11;8.03;;;5.60;;
20014;SDS011;61787;42.022;23.078;2023-03-03T02:04:13;5.40;;;4.60;;
20014;SDS011;61787;42.022;23.078;2023-03-03T02:05:15;6.90;;;5.03;;
20014;SDS011;61787;42.022;23.078;2023-03-03T02:06:18;7.80;;;5.40;;
20014;SDS011;61787;42.022;23.078;2023-03-03T02:07:23;8.80;;;5.50;;
20014;SDS011;61787;42.022;23.078;2023-03-03T02:08:30;6.47;;;4.87;;
20014;SDS011;61787;42.022;23.078;2023-03-03T02:09:48;5.50;;;4.90;;
20014;SDS011;61787;42.022;23.078;2023-03-03T02:10:54;6.73;;;5.07;;
20014;SDS011;61787;42.022;23.078;2023-03-03T02:11:59;7.10;;;5.40;;
20014;SDS011;61787;42.022;23.078;2023-03-03T02:13:03;6.77;;;5.13;;
20014;SDS011;61787;42.022;23.078;2023-03-03T02:14:05;6.27;;;4.67;;
20014;SDS011;61787;42.022;23.078;2023-03-03T02:15:16;6.20;;;5.07;;
20014;SDS011;61787;42.022;23.078;2023-03-03T02:16:23;5.77;;;5.13;;
20014;SDS011;61787;42.022;23.078;2023-03-03T02:17:25;8.10;;;5.63;;
20014;SDS011;61787;42.022;23.078;2023-03-03T02:18:27;5.00;;;4.40;;
20014;SDS011;61787;42.022;23.078;2023-03-03T02:21:14;8.10;;;4.90;;
20014;SDS011;61787;42.022;23.078;2023-03-03T02:22:20;6.47;;;5.43;;
20014;SDS011;61787;42.022;23.078;2023-03-03T02:25:07;6.87;;;5.00;;
20014;SDS011;61787;42.022;23.078;2023-03-03T02:26:15;6.87;;;5.40;;
20014;SDS011;61787;42.022;23.078;2023-03-03T02:27:19;6.23;;;5.03;;
20014;SDS011;61787;42.022;23.078;2023-03-03T02:28:21;6.83;;;5.13;;
20014;SDS011;61787;42.022;23.078;2023-03-03T02:29:25;6.23;;;4.93;;
20014;SDS011;61787;42.022;23.078;2023-03-03T02:30:26;6.80;;;5.07;;
20014;SDS011;61787;42.022;23.078;2023-03-03T02:31:29;6.27;;;4.70;;
20014;SDS011;61787;42.022;23.078;2023-03-03T02:32:31;6.70;;;4.63;;
20014;SDS011;61787;42.022;23.078;2023-03-03T02:33:33;5.87;;;5.03;;
20014;SDS011;61787;42.022;23.078;2023-03-03T02:34:48;7.03;;;5.20;;
20014;SDS011;61787;42.022;23.078;2023-03-03T02:35:51;6.17;;;4.80;;
20014;SDS011;61787;42.022;23.078;2023-03-03T02:36:53;7.60;;;4.93;;
20014;SDS011;61787;42.022;23.078;2023-03-03T02:38:01;6.33;;;4.40;;
20014;SDS011;61787;42.022;23.078;2023-03-03T02:39:22;5.53;;;4.90;;
20014;SDS011;61787;42.022;23.078;2023-03-03T02:40:27;6.33;;;4.57;;
20014;SDS011;61787;42.022;23.078;2023-03-03T02:41:34;5.23;;;4.40;;
20014;SDS011;61787;42.022;23.078;2023-03-03T02:42:40;6.93;;;5.63;;
20014;SDS011;61787;42.022;23.078;2023-03-03T02:43:45;7.47;;;5.10;;
20014;SDS011;61787;42.022;23.078;2023-03-03T02:44:54;6.63;;;5.30;;
20014;SDS011;61787;42.022;23.078;2023-03-03T02:45:56;6.30;;;4.70;;
20014;SDS011;61787;42.022;23.078;2023-03-03T02:46:58;7.17;;;5.13;;
20014;SDS011;61787;42.022;23.078;2023-03-03T02:47:59;7.00;;;5.23;;
20014;SDS011;61787;42.022;23.078;2023-03-03T02:49:02;8.80;;;5.43;;
20014;SDS011;61787;42.022;23.078;2023-03-03T02:50:04;6.47;;;4.33;;
20014;SDS011;61787;42.022;23.078;2023-03-03T02:51:06;6.73;;;5.13;;
20014;SDS011;61787;42.022;23.078;2023-03-03T02:52:08;6.13;;;4.67;;
20014;SDS011;61787;42.022;23.078;2023-03-03T02:53:11;5.93;;;4.70;;
20014;SDS011;61787;42.022;23.078;2023-03-03T02:54:13;7.13;;;4.70;;
20014;SDS011;61787;42.022;23.078;2023-03-03T02:55:16;5.97;;;4.03;;
20014;SDS011;61787;42.022;23.078;2023-03-03T02:56:18;6.13;;;4.73;;
20014;SDS011;61787;42.022;23.078;2023-03-03T02:57:20;7.33;;;5.20;;
20014;SDS011;61787;42.022;23.078;2023-03-03T02:58:21;5.93;;;4.80;;
20014;SDS011;61787;42.022;23.078;2023-03-03T02:59:23;5.77;;;4.87;;
20014;SDS011;61787;42.022;23.078;2023-03-03T03:00:24;5.40;;;4.50;;
20014;SDS011;61787;42.022;23.078;2023-03-03T03:01:26;5.33;;;4.50;;
20014;SDS011;61787;42.022;23.078;2023-03-03T03:02:28;5.80;;;4.87;;
20014;SDS011;61787;42.022;23.078;2023-03-03T03:03:29;6.57;;;4.57;;
20014;SDS011;61787;42.022;23.078;2023-03-03T03:04:31;7.37;;;5.20;;
20014;SDS011;61787;42.022;23.078;2023-03-03T03:05:33;6.03;;;4.90;;
20014;SDS011;61787;42.022;23.078;2023-03-03T03:06:34;5.43;;;4.50;;
20014;SDS011;61787;42.022;23.078;2023-03-03T03:07:36;6.70;;;4.90;;
20014;SDS011;61787;42.022;23.078;2023-03-03T03:08:38;5.80;;;4.73;;
20014;SDS011;61787;42.022;23.078;2023-03-03T03:09:39;6.03;;;4.67;;
20014;SDS011;61787;42.022;23.078;2023-03-03T03:10:41;6.90;;;5.27;;
20014;SDS011;61787;42.022;23.078;2023-03-03T03:11:43;6.43;;;4.67;;
20014;SDS011;61787;42.022;23.078;2023-03-03T03:12:45;7.97;;;4.97;;
20014;SDS011;61787;42.022;23.078;2023-03-03T03:13:46;5.53;;;4.63;;
20014;SDS011;61787;42.022;23.078;2023-03-03T03:14:48;6.97;;;4.33;;
20014;SDS011;61787;42.022;23.078;2023-03-03T03:15:49;7.07;;;4.93;;
20014;SDS011;61787;42.022;23.078;2023-03-03T03:16:51;6.17;;;4.43;;
20014;SDS011;61787;42.022;23.078;2023-03-03T03:17:53;7.37;;;4.57;;
20014;SDS011;61787;42.022;23.078;2023-03-03T03:18:54;5.50;;;4.40;;
20014;SDS011;61787;42.022;23.078;2023-03-03T03:19:56;10.33;;;5.30;;
20014;SDS011;61787;42.022;23.078;2023-03-03T03:21:04;8.37;;;5.20;;
20014;SDS011;61787;42.022;23.078;2023-03-03T03:22:07;6.93;;;4.80;;
20014;SDS011;61787;42.022;23.078;2023-03-03T03:23:09;6.23;;;4.73;;
20014;SDS011;61787;42.022;23.078;2023-03-03T03:24:11;8.80;;;5.63;;
20014;SDS011;61787;42.022;23.078;2023-03-03T03:25:12;8.37;;;5.60;;
20014;SDS011;61787;42.022;23.078;2023-03-03T03:26:14;10.63;;;5.30;;
20014;SDS011;61787;42.022;23.078;2023-03-03T03:27:16;7.70;;;5.10;;
20014;SDS011;61787;42.022;23.078;2023-03-03T03:28:17;6.27;;;5.07;;
20014;SDS011;61787;42.022;23.078;2023-03-03T03:29:19;9.67;;;5.33;;
20014;SDS011;61787;42.022;23.078;2023-03-03T03:30:20;7.27;;;5.50;;
20014;SDS011;61787;42.022;23.078;2023-03-03T03:31:24;7.80;;;5.23;;
20014;SDS011;61787;42.022;23.078;2023-03-03T03:32:26;7.90;;;5.90;;
20014;SDS011;61787;42.022;23.078;2023-03-03T03:33:27;6.87;;;4.97;;
20014;SDS011;61787;42.022;23.078;2023-03-03T03:34:29;6.53;;;4.90;;
20014;SDS011;61787;42.022;23.078;2023-03-03T03:35:32;6.20;;;4.73;;
20014;SDS011;61787;42.022;23.078;2023-03-03T03:36:34;7.57;;;5.43;;
20014;SDS011;61787;42.022;23.078;2023-03-03T03:37:38;8.13;;;5.67;;
20014;SDS011;61787;42.022;23.078;2023-03-03T03:38:40;5.77;;;4.60;;
20014;SDS011;61787;42.022;23.078;2023-03-03T03:39:41;6.47;;;5.00;;
20014;SDS011;61787;42.022;23.078;2023-03-03T03:40:43;6.73;;;4.90;;
20014;SDS011;61787;42.022;23.078;2023-03-03T03:41:45;7.83;;;5.47;;
20014;SDS011;61787;42.022;23.078;2023-03-03T03:42:46;6.60;;;4.83;;
20014;SDS011;61787;42.022;23.078;2023-03-03T03:43:48;7.83;;;5.13;;
20014;SDS011;61787;42.022;23.078;2023-03-03T03:44:49;5.97;;;4.50;;
20014;SDS011;61787;42.022;23.078;2023-03-03T03:45:51;8.13;;;4.87;;
20014;SDS011;61787;42.022;23.078;2023-03-03T03:46:53;6.13;;;4.50;;
20014;SDS011;61787;42.022;23.078;2023-03-03T03:47:55;7.10;;;4.67;;
20014;SDS011;61787;42.022;23.078;2023-03-03T03:48:56;6.23;;;5.17;;
20014;SDS011;61787;42.022;23.078;2023-03-03T03:49:58;5.53;;;4.47;;
20014;SDS011;61787;42.022;23.078;2023-03-03T03:50:59;5.87;;;4.40;;
20014;SDS011;61787;42.022;23.078;2023-03-03T03:52:01;5.87;;;4.30;;
20014;SDS011;61787;42.022;23.078;2023-03-03T03:53:03;7.43;;;4.70;;
20014;SDS011;61787;42.022;23.078;2023-03-03T03:54:05;6.77;;;4.77;;
20014;SDS011;61787;42.022;23.078;2023-03-03T03:55:07;7.03;;;4.47;;
20014;SDS011;61787;42.022;23.078;2023-03-03T03:56:09;7.00;;;4.83;;
20014;SDS011;61787;42.022;23.078;2023-03-03T03:57:10;7.77;;;5.47;;
20014;SDS011;61787;42.022;23.078;2023-03-03T03:58:12;6.03;;;4.47;;
20014;SDS011;61787;42.022;23.078;2023-03-03T03:59:15;7.47;;;5.13;;
20014;SDS011;61787;42.022;23.078;2023-03-03T04:00:17;5.60;;;4.60;;
20014;SDS011;61787;42.022;23.078;2023-03-03T04:01:18;6.33;;;4.97;;
20014;SDS011;61787;42.022;23.078;2023-03-03T04:02:20;8.93;;;5.30;;
20014;SDS011;61787;42.022;23.078;2023-03-03T04:03:22;7.17;;;5.20;;
20014;SDS011;61787;42.022;23.078;2023-03-03T04:04:24;8.90;;;4.97;;
20014;SDS011;61787;42.022;23.078;2023-03-03T04:05:25;7.40;;;4.37;;
20014;SDS011;61787;42.022;23.078;2023-03-03T04:06:27;7.33;;;5.17;;
20014;SDS011;61787;42.022;23.078;2023-03-03T04:07:29;8.20;;;5.20;;
20014;SDS011;61787;42.022;23.078;2023-03-03T04:08:30;8.63;;;5.50;;
20014;SDS011;61787;42.022;23.078;2023-03-03T04:09:32;9.23;;;5.70;;
20014;SDS011;61787;42.022;23.078;2023-03-03T04:10:35;7.87;;;5.30;;
20014;SDS011;61787;42.022;23.078;2023-03-03T04:11:36;9.10;;;5.27;;
20014;SDS011;61787;42.022;23.078;2023-03-03T04:12:38;7.90;;;5.47;;
20014;SDS011;61787;42.022;23.078;2023-03-03T04:13:39;7.70;;;5.37;;
20014;SDS011;61787;42.022;23.078;2023-03-03T04:14:41;10.20;;;5.63;;
20014;SDS011;61787;42.022;23.078;2023-03-03T04:15:43;7.77;;;5.20;;
20014;SDS011;61787;42.022;23.078;2023-03-03T04:16:44;7.50;;;5.43;;
20014;SDS011;61787;42.022;23.078;2023-03-03T04:17:46;9.70;;;5.80;;
20014;SDS011;61787;42.022;23.078;2023-03-03T04:18:48;9.90;;;5.80;;
20014;SDS011;61787;42.022;23.078;2023-03-03T04:19:51;10.63;;;5.57;;
20014;SDS011;61787;42.022;23.078;2023-03-03T04:20:53;9.53;;;5.93;;
20014;SDS011;61787;42.022;23.078;2023-03-03T04:21:55;10.13;;;6.60;;
20014;SDS011;61787;42.022;23.078;2023-03-03T04:22:57;11.60;;;6.97;;
20014;SDS011;61787;42.022;23.078;2023-03-03T04:23:58;11.63;;;7.87;;
20014;SDS011;61787;42.022;23.078;2023-03-03T04:25:04;12.37;;;7.17;;
20014;SDS011;61787;42.022;23.078;2023-03-03T04:26:07;11.97;;;7.17;;
20014;SDS011;61787;42.022;23.078;2023-03-03T04:27:09;12.40;;;6.90;;
20014;SDS011;61787;42.022;23.078;2023-03-03T04:28:11;9.77;;;7.20;;
20014;SDS011;61787;42.022;23.078;2023-03-03T04:29:13;10.47;;;6.87;;
20014;SDS011;61787;42.022;23.078;2023-03-03T04:30:15;15.17;;;7.53;;
20014;SDS011;61787;42.022;23.078;2023-03-03T04:31:17;12.90;;;7.10;;
20014;SDS011;61787;42.022;23.078;2023-03-03T04:32:20;13.30;;;6.80;;
20014;SDS011;61787;42.022;23.078;2023-03-03T04:33:22;10.37;;;6.93;;
20014;SDS011;61787;42.022;23.078;2023-03-03T04:34:24;10.83;;;6.90;;
20014;SDS011;61787;42.022;23.078;2023-03-03T04:35:26;9.30;;;6.77;;
20014;SDS011;61787;42.022;23.078;2023-03-03T04:36:27;11.53;;;7.50;;
20014;SDS011;61787;42.022;23.078;2023-03-03T04:37:29;9.23;;;6.17;;
20014;SDS011;61787;42.022;23.078;2023-03-03T04:38:30;11.10;;;6.93;;
20014;SDS011;61787;42.022;23.078;2023-03-03T04:39:32;12.30;;;7.20;;
20014;SDS011;61787;42.022;23.078;2023-03-03T04:40:34;12.30;;;6.97;;
20014;SDS011;61787;42.022;23.078;2023-03-03T04:41:35;11.40;;;6.87;;
20014;SDS011;61787;42.022;23.078;2023-03-03T04:42:37;11.57;;;6.93;;
20014;SDS011;61787;42.022;23.078;2023-03-03T04:43:38;14.30;;;7.30;;
20014;SDS011;61787;42.022;23.078;2023-03-03T04:44:40;11.13;;;7.07;;
20014;SDS011;61787;42.022;23.078;2023-03-03T04:45:42;12.13;;;7.43;;
20014;SDS011;61787;42.022;23.078;2023-03-03T04:46:44;11.77;;;7.30;;
20014;SDS011;61787;42.022;23.078;2023-03-03T04:47:46;12.90;;;8.13;;
20014;SDS011;61787;42.022;23.078;2023-03-03T04:48:47;11.17;;;7.73;;
20014;SDS011;61787;42.022;23.078;2023-03-03T04:49:49;10.10;;;7.80;;
20014;SDS011;61787;42.022;23.078;2023-03-03T04:50:50;14.73;;;8.73;;
20014;SDS011;61787;42.022;23.078;2023-03-03T04:51:52;11.37;;;7.80;;
20014;SDS011;61787;42.022;23.078;2023-03-03T04:52:54;14.33;;;8.83;;
20014;SDS011;61787;42.022;23.078;2023-03-03T04:53:55;12.77;;;8.43;;
20014;SDS011;61787;42.022;23.078;2023-03-03T04:54:57;10.93;;;8.07;;
20014;SDS011;61787;42.022;23.078;2023-03-03T04:55:59;13.77;;;9.00;;
20014;SDS011;61787;42.022;23.078;2023-03-03T04:57:00;14.10;;;9.40;;
20014;SDS011;61787;42.022;23.078;2023-03-03T04:58:02;11.80;;;8.40;;
20014;SDS011;61787;42.022;23.078;2023-03-03T04:59:04;11.57;;;8.40;;
20014;SDS011;61787;42.022;23.078;2023-03-03T05:00:06;12.20;;;7.87;;
20014;SDS011;61787;42.022;23.078;2023-03-03T05:01:11;11.00;;;7.87;;
20014;SDS011;61787;42.022;23.078;2023-03-03T05:02:14;11.33;;;7.60;;
20014;SDS011;61787;42.022;23.078;2023-03-03T05:03:17;11.67;;;8.03;;
20014;SDS011;61787;42.022;23.078;2023-03-03T05:04:19;12.90;;;7.93;;
20014;SDS011;61787;42.022;23.078;2023-03-03T05:05:21;13.93;;;7.90;;
20014;SDS011;61787;42.022;23.078;2023-03-03T05:06:22;13.23;;;8.00;;
20014;SDS011;61787;42.022;23.078;2023-03-03T05:07:24;13.80;;;7.90;;
20014;SDS011;61787;42.022;23.078;2023-03-03T05:08:26;11.53;;;7.60;;
20014;SDS011;61787;42.022;23.078;2023-03-03T05:09:27;12.17;;;7.50;;
20014;SDS011;61787;42.022;23.078;2023-03-03T05:10:30;9.67;;;7.70;;
20014;SDS011;61787;42.022;23.078;2023-03-03T05:11:34;11.30;;;7.73;;
20014;SDS011;61787;42.022;23.078;2023-03-03T05:12:36;9.43;;;8.07;;
20014;SDS011;61787;42.022;23.078;2023-03-03T05:13:38;11.13;;;7.90;;
20014;SDS011;61787;42.022;23.078;2023-03-03T05:14:40;12.77;;;8.30;;
20014;SDS011;61787;42.022;23.078;2023-03-03T05:15:41;14.17;;;8.97;;
20014;SDS011;61787;42.022;23.078;2023-03-03T05:16:43;12.07;;;8.30;;
20014;SDS011;61787;42.022;23.078;2023-03-03T05:17:45;11.27;;;8.17;;
20014;SDS011;61787;42.022;23.078;2023-03-03T05:18:46;15.30;;;8.50;;
20014;SDS011;61787;42.022;23.078;2023-03-03T05:19:48;12.63;;;8.47;;
20014;SDS011;61787;42.022;23.078;2023-03-03T05:20:50;12.70;;;8.60;;
20014;SDS011;61787;42.022;23.078;2023-03-03T05:21:52;15.93;;;8.77;;
20014;SDS011;61787;42.022;23.078;2023-03-03T05:22:55;12.97;;;8.20;;
20014;SDS011;61787;42.022;23.078;2023-03-03T05:23:59;12.07;;;7.47;;
20014;SDS011;61787;42.022;23.078;2023-03-03T05:25:01;11.00;;;8.00;;
20014;SDS011;61787;42.022;23.078;2023-03-03T05:26:03;13.30;;;9.00;;
20014;SDS011;61787;42.022;23.078;2023-03-03T05:27:05;12.43;;;8.17;;
20014;SDS011;61787;42.022;23.078;2023-03-03T05:28:07;12.57;;;8.30;;
20014;SDS011;61787;42.022;23.078;2023-03-03T05:29:09;10.80;;;7.70;;
20014;SDS011;61787;42.022;23.078;2023-03-03T05:30:11;14.93;;;9.73;;
20014;SDS011;61787;42.022;23.078;2023-03-03T05:31:13;14.27;;;9.23;;
20014;SDS011;61787;42.022;23.078;2023-03-03T05:32:14;12.60;;;8.33;;
20014;SDS011;61787;42.022;23.078;2023-03-03T05:33:16;12.40;;;8.70;;
20014;SDS011;61787;42.022;23.078;2023-03-03T05:34:18;11.67;;;8.30;;
20014;SDS011;61787;42.022;23.078;2023-03-03T05:35:20;11.20;;;8.13;;
20014;SDS011;61787;42.022;23.078;2023-03-03T05:36:21;15.73;;;8.10;;
20014;SDS011;61787;42.022;23.078;2023-03-03T05:37:23;12.37;;;7.70;;
20014;SDS011;61787;42.022;23.078;2023-03-03T05:38:25;12.57;;;8.23;;
20014;SDS011;61787;42.022;23.078;2023-03-03T05:39:26;11.17;;;8.07;;
20014;SDS011;61787;42.022;23.078;2023-03-03T05:40:28;13.90;;;9.07;;
20014;SDS011;61787;42.022;23.078;2023-03-03T05:41:29;14.60;;;9.60;;
20014;SDS011;61787;42.022;23.078;2023-03-03T05:42:31;14.30;;;9.07;;
20014;SDS011;61787;42.022;23.078;2023-03-03T05:43:33;13.00;;;8.90;;
20014;SDS011;61787;42.022;23.078;2023-03-03T05:44:34;12.47;;;9.00;;
20014;SDS011;61787;42.022;23.078;2023-03-03T05:45:36;15.50;;;9.87;;
20014;SDS011;61787;42.022;23.078;2023-03-03T05:46:38;15.30;;;9.83;;
20014;SDS011;61787;42.022;23.078;2023-03-03T05:47:40;13.50;;;9.27;;
20014;SDS011;61787;42.022;23.078;2023-03-03T05:48:41;15.73;;;8.87;;
20014;SDS011;61787;42.022;23.078;2023-03-03T05:49:43;14.83;;;8.93;;
20014;SDS011;61787;42.022;23.078;2023-03-03T05:50:45;11.97;;;8.20;;
20014;SDS011;61787;42.022;23.078;2023-03-03T05:51:46;11.57;;;8.70;;
20014;SDS011;61787;42.022;23.078;2023-03-03T05:52:48;14.50;;;9.17;;
20014;SDS011;61787;42.022;23.078;2023-03-03T05:53:52;15.20;;;9.60;;
20014;SDS011;61787;42.022;23.078;2023-03-03T05:54:56;12.90;;;9.27;;
20014;SDS011;61787;42.022;23.078;2023-03-03T05:55:58;9.43;;;6.93;;
20014;SDS011;61787;42.022;23.078;2023-03-03T05:57:00;11.17;;;7.30;;
20014;SDS011;61787;42.022;23.078;2023-03-03T05:58:02;13.43;;;8.63;;
20014;SDS011;61787;42.022;23.078;2023-03-03T05:59:04;11.77;;;8.40;;
20014;SDS011;61787;42.022;23.078;2023-03-03T06:00:05;11.20;;;8.20;;
20014;SDS011;61787;42.022;23.078;2023-03-03T06:01:08;12.57;;;8.17;;
20014;SDS011;61787;42.022;23.078;2023-03-03T06:02:10;15.30;;;8.93;;
20014;SDS011;61787;42.022;23.078;2023-03-03T06:03:11;14.90;;;9.50;;
20014;SDS011;61787;42.022;23.078;2023-03-03T06:04:13;16.33;;;10.37;;
20014;SDS011;61787;42.022;23.078;2023-03-03T06:05:15;14.97;;;10.10;;
20014;SDS011;61787;42.022;23.078;2023-03-03T06:06:16;13.30;;;10.33;;
20014;SDS011;61787;42.022;23.078;2023-03-03T06:07:19;16.03;;;11.20;;
20014;SDS011;61787;42.022;23.078;2023-03-03T06:08:21;15.57;;;10.87;;
20014;SDS011;61787;42.022;23.078;2023-03-03T06:09:22;15.03;;;10.47;;
20014;SDS011;61787;42.022;23.078;2023-03-03T06:10:24;15.17;;;10.37;;
20014;SDS011;61787;42.022;23.078;2023-03-03T06:11:26;17.53;;;10.10;;
20014;SDS011;61787;42.022;23.078;2023-03-03T06:12:27;14.67;;;10.47;;
20014;SDS011;61787;42.022;23.078;2023-03-03T06:13:29;15.90;;;10.27;;
20014;SDS011;61787;42.022;23.078;2023-03-03T06:14:31;14.37;;;10.17;;
20014;SDS011;61787;42.022;23.078;2023-03-03T06:15:32;12.87;;;9.50;;
20014;SDS011;61787;42.022;23.078;2023-03-03T06:16:34;13.73;;;10.07;;
20014;SDS011;61787;42.022;23.078;2023-03-03T06:17:35;18.30;;;10.13;;
20014;SDS011;61787;42.022;23.078;2023-03-03T06:18:37;14.90;;;10.00;;
20014;SDS011;61787;42.022;23.078;2023-03-03T06:19:39;13.40;;;9.57;;